Time;durP1;ratioP1;P1;durP2;ratioP2;P2;SDS_P1;SDS_P2;PMS_P1;PMS_P2;Temp;Humidity;BMP_temperature;BMP_pressure;BME280_temperature;BME280_humidity;BME280_pressure;Samples;Min_cycle;Max_cycle;Signal;HPM_P1;HPM_P2
2023/05/16 00:00:16;;;;;;;12.63;4.22;;;;;;;;;;5086110;28;20061;-67
2023/05/16 00:02:41;;;;;;;11.55;4.30;;;;;;;;;;5086724;28;20024;-67
2023/05/16 00:05:06;;;;;;;7.25;4.07;;;;;;;;;;5083869;28;20791;-68
2023/05/16 00:07:32;;;;;;;9.50;4.03;;;;;;;;;;5084941;28;20201;-65
2023/05/16 00:09:58;;;;;;;11.88;4.60;;;;;;;;;;5084198;28;20028;-67
2023/05/16 00:12:23;;;;;;;9.98;4.43;;;;;;;;;;5063179;28;20032;-67
2023/05/16 00:14:50;;;;;;;8.10;3.42;;;;;;;;;;5044213;28;20063;-67
2023/05/16 00:17:16;;;;;;;16.63;4.32;;;;;;;;;;5041082;28;20085;-67
2023/05/16 00:19:43;;;;;;;11.50;4.30;;;;;;;;;;5047157;28;20080;-67
2023/05/16 00:22:10;;;;;;;21.77;4.93;;;;;;;;;;5053900;28;20046;-67
2023/05/16 00:24:35;;;;;;;21.95;5.55;;;;;;;;;;5085170;28;20093;-67
2023/05/16 00:27:00;;;;;;;20.00;5.45;;;;;;;;;;5086497;28;20028;-68
2023/05/16 00:29:25;;;;;;;15.85;6.18;;;;;;;;;;5068632;28;20017;-66
2023/05/16 00:31:51;;;;;;;22.90;5.93;;;;;;;;;;5083268;28;20754;-68
2023/05/16 00:34:16;;;;;;;16.85;4.88;;;;;;;;;;5083389;28;20027;-68
2023/05/16 00:36:42;;;;;;;23.92;6.65;;;;;;;;;;5073520;28;20020;-68
2023/05/16 00:39:07;;;;;;;12.55;5.80;;;;;;;;;;5080268;28;20127;-68
2023/05/16 00:41:33;;;;;;;20.13;7.00;;;;;;;;;;5085813;28;20057;-68
2023/05/16 00:43:58;;;;;;;22.75;7.07;;;;;;;;;;5085442;28;20651;-68
2023/05/16 00:46:23;;;;;;;16.70;7.93;;;;;;;;;;5085183;28;20678;-67
2023/05/16 00:48:48;;;;;;;17.17;7.40;;;;;;;;;;5073572;28;20032;-66
2023/05/16 00:51:14;;;;;;;13.52;6.75;;;;;;;;;;5084197;28;20028;-68
2023/05/16 00:53:39;;;;;;;16.35;7.30;;;;;;;;;;5086564;28;20032;-66
2023/05/16 00:56:05;;;;;;;17.55;6.90;;;;;;;;;;5081271;28;20028;-68
2023/05/16 00:58:32;;;;;;;20.55;7.18;;;;;;;;;;5059126;28;20089;-67
2023/05/16 01:00:58;;;;;;;17.98;7.35;;;;;;;;;;5071247;28;20028;-67
2023/05/16 01:03:23;;;;;;;17.90;7.30;;;;;;;;;;5086765;28;20529;-67
2023/05/16 01:05:48;;;;;;;21.40;7.38;;;;;;;;;;5086294;28;20024;-66
2023/05/16 01:08:14;;;;;;;25.70;7.50;;;;;;;;;;5080521;28;20032;-67
2023/05/16 01:10:45;;;;;;;23.98;7.47;;;;;;;;;;5073229;28;20028;-67
2023/05/16 01:13:12;;;;;;;22.58;7.43;;;;;;;;;;5085246;28;20115;-66
2023/05/16 01:15:46;;;;;;;17.75;6.90;;;;;;;;;;5084421;28;20118;-67
2023/05/16 01:18:17;;;;;;;27.67;7.45;;;;;;;;;;5084546;28;20024;-66
2023/05/16 01:20:47;;;;;;;13.05;5.78;;;;;;;;;;5083406;28;20043;-66
2023/05/16 01:23:18;;;;;;;16.33;6.07;;;;;;;;;;5077683;28;20033;-67
2023/05/16 01:25:44;;;;;;;23.55;7.93;;;;;;;;;;5079991;28;20035;-67
2023/05/16 01:28:09;;;;;;;23.00;6.50;;;;;;;;;;5086029;28;20398;-67
2023/05/16 01:30:38;;;;;;;23.17;6.18;;;;;;;;;;5086293;28;20504;-67
2023/05/16 01:33:04;;;;;;;23.02;6.57;;;;;;;;;;5083881;28;20032;-67
2023/05/16 01:35:29;;;;;;;21.65;6.30;;;;;;;;;;5084679;28;20039;-67
2023/05/16 01:38:10;;;;;;;19.33;6.75;;;;;;;;;;5085604;28;20039;-67
2023/05/16 01:40:38;;;;;;;20.13;6.70;;;;;;;;;;5083662;28;20127;-67
2023/05/16 01:43:07;;;;;;;15.18;6.43;;;;;;;;;;5083530;28;20028;-67
2023/05/16 01:45:34;;;;;;;20.90;6.43;;;;;;;;;;5081574;28;20028;-67
2023/05/16 01:48:04;;;;;;;12.45;5.97;;;;;;;;;;5081851;28;20475;-68
2023/05/16 01:50:30;;;;;;;27.00;7.72;;;;;;;;;;5078047;28;20550;-67
2023/05/16 01:52:57;;;;;;;18.00;6.72;;;;;;;;;;5079260;28;20035;-67
2023/05/16 01:55:29;;;;;;;14.18;6.32;;;;;;;;;;5084963;28;20063;-66
2023/05/16 01:57:54;;;;;;;23.35;7.50;;;;;;;;;;5085272;28;20796;-67
2023/05/16 02:00:20;;;;;;;20.63;6.20;;;;;;;;;;5085996;28;20067;-67
2023/05/16 02:02:45;;;;;;;19.10;6.07;;;;;;;;;;5084268;28;20036;-67
2023/05/16 02:05:10;;;;;;;18.60;6.28;;;;;;;;;;5084594;28;20119;-67
2023/05/16 02:07:35;;;;;;;21.80;6.53;;;;;;;;;;5064933;28;20043;-67
2023/05/16 02:10:01;;;;;;;21.98;6.88;;;;;;;;;;5083944;28;20081;-67
2023/05/16 02:12:26;;;;;;;19.63;5.75;;;;;;;;;;5081506;28;20030;-68
2023/05/16 02:14:51;;;;;;;20.88;5.95;;;;;;;;;;5084924;28;20237;-67
2023/05/16 02:17:16;;;;;;;27.98;6.63;;;;;;;;;;5083935;28;20024;-67
2023/05/16 02:19:42;;;;;;;22.58;7.18;;;;;;;;;;5082182;28;20039;-69
2023/05/16 02:22:07;;;;;;;29.17;6.43;;;;;;;;;;5083574;28;20031;-68
2023/05/16 02:24:32;;;;;;;22.10;6.53;;;;;;;;;;5076944;28;20042;-68
2023/05/16 02:26:58;;;;;;;19.08;6.47;;;;;;;;;;5085413;28;20028;-67
2023/05/16 02:29:23;;;;;;;17.70;5.60;;;;;;;;;;5084035;28;20046;-67
2023/05/16 02:31:48;;;;;;;19.10;6.00;;;;;;;;;;5082365;28;20089;-66
2023/05/16 02:34:14;;;;;;;21.65;6.15;;;;;;;;;;5082094;28;20046;-66
2023/05/16 02:36:39;;;;;;;25.10;5.35;;;;;;;;;;5080329;28;20457;-67
2023/05/16 02:39:06;;;;;;;18.25;6.70;;;;;;;;;;5081900;28;20046;-68
2023/05/16 02:41:32;;;;;;;14.50;5.88;;;;;;;;;;5063823;28;20032;-67
2023/05/16 02:44:22;;;;;;;19.35;5.35;;;;;;;;;;5073610;28;20039;-66
2023/05/16 02:46:47;;;;;;;13.35;5.90;;;;;;;;;;5081585;28;20035;-67
2023/05/16 02:49:12;;;;;;;16.10;5.72;;;;;;;;;;5083396;28;20036;-68
2023/05/16 02:51:37;;;;;;;16.50;5.32;;;;;;;;;;5084769;28;20462;-67
2023/05/16 02:54:03;;;;;;;15.02;5.25;;;;;;;;;;5082581;28;20112;-68
2023/05/16 02:56:28;;;;;;;20.50;5.55;;;;;;;;;;5083514;28;20048;-68
2023/05/16 02:58:54;;;;;;;22.73;6.05;;;;;;;;;;5085026;28;20044;-68
2023/05/16 03:01:19;;;;;;;16.00;6.15;;;;;;;;;;5084750;28;20848;-68
2023/05/16 03:03:44;;;;;;;24.90;5.72;;;;;;;;;;5082825;28;20020;-68
2023/05/16 03:06:10;;;;;;;22.60;6.38;;;;;;;;;;5083545;28;20028;-68
2023/05/16 03:08:35;;;;;;;16.58;6.20;;;;;;;;;;5083624;28;20020;-67
2023/05/16 03:11:01;;;;;;;15.48;5.97;;;;;;;;;;5062541;28;20020;-68
2023/05/16 03:13:27;;;;;;;15.50;6.25;;;;;;;;;;5078491;28;20024;-67
2023/05/16 03:15:52;;;;;;;17.35;5.18;;;;;;;;;;5071658;28;20767;-67
2023/05/16 03:18:17;;;;;;;21.45;5.90;;;;;;;;;;5079260;28;20079;-67
2023/05/16 03:20:43;;;;;;;17.73;5.00;;;;;;;;;;5082451;28;20016;-66
2023/05/16 03:23:08;;;;;;;12.35;5.18;;;;;;;;;;5081694;28;20034;-68
2023/05/16 03:25:35;;;;;;;20.02;5.70;;;;;;;;;;5079974;28;20028;-68
2023/05/16 03:28:00;;;;;;;18.30;5.22;;;;;;;;;;5082893;28;20123;-68
2023/05/16 03:30:25;;;;;;;11.18;4.25;;;;;;;;;;5081120;28;20036;-67
2023/05/16 03:32:51;;;;;;;13.65;5.07;;;;;;;;;;5079046;28;20507;-67
2023/05/16 03:35:16;;;;;;;21.88;5.57;;;;;;;;;;5080353;28;20025;-67
2023/05/16 03:37:42;;;;;;;18.50;5.53;;;;;;;;;;5082501;28;20028;-67
2023/05/16 03:40:07;;;;;;;24.33;5.57;;;;;;;;;;5080012;28;20028;-67
2023/05/16 03:42:33;;;;;;;14.77;5.40;;;;;;;;;;5082950;28;20059;-67
2023/05/16 03:44:58;;;;;;;21.80;5.80;;;;;;;;;;5085588;28;20028;-68
2023/05/16 03:47:24;;;;;;;20.58;5.30;;;;;;;;;;5086331;28;20032;-67
2023/05/16 03:49:49;;;;;;;16.67;4.95;;;;;;;;;;5066729;28;20735;-67
2023/05/16 03:52:14;;;;;;;24.08;5.15;;;;;;;;;;5081640;28;20036;-67
2023/05/16 03:54:39;;;;;;;19.73;5.03;;;;;;;;;;5081188;28;20462;-67
2023/05/16 03:57:05;;;;;;;18.02;5.07;;;;;;;;;;5082292;28;20032;-67
2023/05/16 03:59:30;;;;;;;9.70;4.43;;;;;;;;;;5084049;28;20456;-67
2023/05/16 04:01:55;;;;;;;13.98;5.32;;;;;;;;;;5083415;28;20028;-67
2023/05/16 04:04:21;;;;;;;15.60;4.47;;;;;;;;;;5083561;28;20027;-68
2023/05/16 04:06:46;;;;;;;16.75;4.38;;;;;;;;;;5083036;28;20032;-69
2023/05/16 04:09:11;;;;;;;13.38;4.65;;;;;;;;;;5078693;28;20027;-67
2023/05/16 04:11:37;;;;;;;15.60;4.45;;;;;;;;;;5079596;28;20020;-67
2023/05/16 04:14:02;;;;;;;14.35;4.30;;;;;;;;;;5076193;28;20541;-67
2023/05/16 04:16:28;;;;;;;13.98;4.50;;;;;;;;;;5063180;28;20820;-67
2023/05/16 04:18:55;;;;;;;12.27;4.25;;;;;;;;;;5073044;28;20154;-67
2023/05/16 04:21:20;;;;;;;16.10;5.18;;;;;;;;;;5075078;28;20032;-67
2023/05/16 04:23:45;;;;;;;12.10;4.15;;;;;;;;;;5072864;28;20039;-68
2023/05/16 04:26:11;;;;;;;17.85;4.45;;;;;;;;;;5074971;28;20028;-67
2023/05/16 04:28:36;;;;;;;21.08;4.03;;;;;;;;;;5078615;28;20038;-67
2023/05/16 04:31:02;;;;;;;19.95;4.68;;;;;;;;;;5077469;28;20036;-67
2023/05/16 04:33:27;;;;;;;21.77;4.82;;;;;;;;;;5077228;28;20028;-67
2023/05/16 04:35:53;;;;;;;13.93;4.40;;;;;;;;;;5080503;28;20023;-67
2023/05/16 04:38:18;;;;;;;11.80;4.10;;;;;;;;;;5075774;28;20039;-67
2023/05/16 04:40:44;;;;;;;26.52;5.10;;;;;;;;;;5070930;28;20490;-67
2023/05/16 04:43:09;;;;;;;14.02;4.85;;;;;;;;;;5074093;28;20761;-67
2023/05/16 04:45:35;;;;;;;12.52;4.43;;;;;;;;;;5069225;28;20035;-65
2023/05/16 04:48:00;;;;;;;12.35;5.03;;;;;;;;;;5067996;28;20043;-65
2023/05/16 04:50:26;;;;;;;14.65;4.70;;;;;;;;;;5081270;28;20036;-66
2023/05/16 04:52:51;;;;;;;12.63;4.20;;;;;;;;;;5066599;28;20034;-66
2023/05/16 04:55:16;;;;;;;24.38;6.35;;;;;;;;;;5079704;28;20056;-66
2023/05/16 04:57:42;;;;;;;13.05;4.70;;;;;;;;;;5082783;28;20027;-67
2023/05/16 05:00:10;;;;;;;17.45;5.38;;;;;;;;;;5084389;28;20077;-67
2023/05/16 05:02:36;;;;;;;16.00;4.70;;;;;;;;;;5084421;28;20051;-67
2023/05/16 05:05:02;;;;;;;12.55;4.43;;;;;;;;;;5084559;28;20099;-66
2023/05/16 05:07:28;;;;;;;12.18;4.40;;;;;;;;;;5083390;28;20012;-66
2023/05/16 05:09:54;;;;;;;22.00;4.55;;;;;;;;;;5080037;28;20043;-67
2023/05/16 05:12:20;;;;;;;9.45;4.30;;;;;;;;;;5082008;28;20034;-67
2023/05/16 05:14:45;;;;;;;14.25;5.22;;;;;;;;;;5084889;28;20028;-67
2023/05/16 05:17:10;;;;;;;15.68;4.25;;;;;;;;;;5085318;28;20046;-67
2023/05/16 05:19:35;;;;;;;28.23;4.80;;;;;;;;;;5085387;28;20490;-66
2023/05/16 05:22:01;;;;;;;14.13;4.28;;;;;;;;;;5082254;28;20028;-66
2023/05/16 05:24:26;;;;;;;18.30;5.45;;;;;;;;;;5083688;28;20024;-66
2023/05/16 05:26:52;;;;;;;14.13;4.68;;;;;;;;;;5084328;28;20028;-66
2023/05/16 05:29:17;;;;;;;12.52;4.05;;;;;;;;;;5083874;28;20051;-67
2023/05/16 05:31:42;;;;;;;17.73;4.88;;;;;;;;;;5082376;28;20043;-67
2023/05/16 05:34:08;;;;;;;21.80;5.75;;;;;;;;;;5081093;28;20635;-67
2023/05/16 05:36:33;;;;;;;14.23;4.40;;;;;;;;;;5082830;28;20028;-66
2023/05/16 05:38:58;;;;;;;12.82;5.05;;;;;;;;;;5081764;28;20093;-67
2023/05/16 05:41:23;;;;;;;15.75;4.43;;;;;;;;;;5062050;28;20114;-67
2023/05/16 05:43:49;;;;;;;22.42;5.07;;;;;;;;;;5081272;28;20028;-66
2023/05/16 05:46:15;;;;;;;14.40;4.72;;;;;;;;;;5083537;28;20032;-66
2023/05/16 05:48:41;;;;;;;12.45;4.47;;;;;;;;;;5084457;28;20078;-67
2023/05/16 05:51:06;;;;;;;11.15;4.40;;;;;;;;;;5084592;28;20474;-67
2023/05/16 05:53:31;;;;;;;12.55;4.18;;;;;;;;;;5083974;28;20024;-66
2023/05/16 05:55:56;;;;;;;8.90;4.07;;;;;;;;;;5065462;28;20110;-66
2023/05/16 05:58:22;;;;;;;17.90;4.85;;;;;;;;;;5086677;28;20475;-67
2023/05/16 06:00:47;;;;;;;16.73;4.68;;;;;;;;;;5084772;28;20036;-66
2023/05/16 06:03:13;;;;;;;19.33;4.90;;;;;;;;;;5084491;28;20036;-67
2023/05/16 06:05:38;;;;;;;16.13;5.25;;;;;;;;;;5082926;28;20020;-66
2023/05/16 06:08:04;;;;;;;21.75;4.95;;;;;;;;;;5084448;28;20031;-66
2023/05/16 06:10:30;;;;;;;11.75;4.45;;;;;;;;;;5085132;28;20035;-66
2023/05/16 06:12:55;;;;;;;14.80;4.07;;;;;;;;;;5084544;28;20024;-67
2023/05/16 06:15:20;;;;;;;17.63;4.38;;;;;;;;;;5084070;28;20038;-67
2023/05/16 06:17:45;;;;;;;16.92;3.97;;;;;;;;;;5084351;28;20036;-67
2023/05/16 06:20:12;;;;;;;12.23;3.78;;;;;;;;;;5085020;28;20399;-67
2023/05/16 06:22:37;;;;;;;16.58;4.05;;;;;;;;;;5083338;28;20028;-66
2023/05/16 06:25:03;;;;;;;13.95;3.70;;;;;;;;;;5083184;28;20513;-67
2023/05/16 06:27:28;;;;;;;12.35;3.83;;;;;;;;;;5080064;28;20031;-66
2023/05/16 06:29:53;;;;;;;8.75;3.58;;;;;;;;;;5084026;28;20643;-66
2023/05/16 06:32:19;;;;;;;11.88;3.92;;;;;;;;;;5065836;28;20126;-66
2023/05/16 06:34:44;;;;;;;18.90;4.55;;;;;;;;;;5083808;28;20475;-67
2023/05/16 06:37:10;;;;;;;10.98;3.60;;;;;;;;;;5083957;28;20036;-67
2023/05/16 06:39:35;;;;;;;16.45;3.65;;;;;;;;;;5085994;28;20047;-66
2023/05/16 06:42:00;;;;;;;11.45;3.55;;;;;;;;;;5084335;28;20020;-67
2023/05/16 06:44:26;;;;;;;8.50;3.20;;;;;;;;;;5055358;28;20034;-67
2023/05/16 06:46:51;;;;;;;9.32;3.50;;;;;;;;;;5047377;28;20907;-64
2023/05/16 06:49:17;;;;;;;14.75;3.65;;;;;;;;;;5048735;28;20094;-68
2023/05/16 06:51:42;;;;;;;12.82;3.42;;;;;;;;;;5045189;28;20032;-68
2023/05/16 06:54:07;;;;;;;9.35;3.03;;;;;;;;;;5052525;28;20858;-68
2023/05/16 06:56:33;;;;;;;9.15;3.88;;;;;;;;;;5048197;28;20055;-69
2023/05/16 06:59:00;;;;;;;14.77;3.67;;;;;;;;;;5059496;28;20620;-65
2023/05/16 07:01:25;;;;;;;13.32;2.90;;;;;;;;;;5060509;28;20455;-66
2023/05/16 07:03:51;;;;;;;9.88;3.03;;;;;;;;;;5063492;28;20040;-65
2023/05/16 07:06:16;;;;;;;12.20;3.70;;;;;;;;;;5060784;28;20031;-66
2023/05/16 07:08:41;;;;;;;10.00;2.75;;;;;;;;;;5059959;28;20890;-63
2023/05/16 07:11:07;;;;;;;11.57;3.05;;;;;;;;;;5057725;28;20471;-64
2023/05/16 07:13:32;;;;;;;7.90;2.53;;;;;;;;;;5059022;28;20026;-64
2023/05/16 07:15:57;;;;;;;8.52;2.95;;;;;;;;;;5047314;28;20125;-66
2023/05/16 07:18:22;;;;;;;7.97;2.88;;;;;;;;;;5071270;28;20456;-71
2023/05/16 07:20:48;;;;;;;15.98;3.38;;;;;;;;;;5066506;28;20947;-67
2023/05/16 07:23:13;;;;;;;13.88;3.03;;;;;;;;;;5060030;28;20768;-66
2023/05/16 07:25:38;;;;;;;8.73;3.08;;;;;;;;;;5067439;28;20016;-67
2023/05/16 07:28:04;;;;;;;9.73;2.88;;;;;;;;;;5064874;28;21037;-66
2023/05/16 07:30:29;;;;;;;6.57;2.60;;;;;;;;;;5056539;28;20024;-66
2023/05/16 07:32:55;;;;;;;14.88;3.97;;;;;;;;;;5064219;28;20143;-67
2023/05/16 07:35:20;;;;;;;8.00;2.95;;;;;;;;;;5065198;28;20028;-67
2023/05/16 07:37:45;;;;;;;10.55;3.10;;;;;;;;;;5052788;28;20043;-64
2023/05/16 07:40:11;;;;;;;6.15;2.20;;;;;;;;;;5066490;28;20016;-66
2023/05/16 07:42:36;;;;;;;6.90;2.70;;;;;;;;;;5056570;28;20148;-67
2023/05/16 07:45:02;;;;;;;5.87;2.50;;;;;;;;;;5051883;28;20087;-67
2023/05/16 07:47:27;;;;;;;10.70;3.17;;;;;;;;;;5044782;28;20385;-66
2023/05/16 07:49:53;;;;;;;13.30;2.53;;;;;;;;;;5052712;28;20016;-68
2023/05/16 07:52:18;;;;;;;7.35;2.28;;;;;;;;;;5059139;28;20024;-68
2023/05/16 07:54:45;;;;;;;5.65;2.65;;;;;;;;;;5052143;28;20016;-68
2023/05/16 07:57:10;;;;;;;7.85;2.67;;;;;;;;;;5055300;28;20119;-65
2023/05/16 07:59:36;;;;;;;8.65;2.00;;;;;;;;;;5061706;28;20044;-68
2023/05/16 08:02:01;;;;;;;9.20;2.50;;;;;;;;;;5059628;28;20039;-68
2023/05/16 08:04:26;;;;;;;19.98;2.65;;;;;;;;;;5065281;28;20036;-67
2023/05/16 08:06:52;;;;;;;12.10;2.95;;;;;;;;;;5086299;28;20055;-68
2023/05/16 08:09:18;;;;;;;6.20;2.53;;;;;;;;;;5085878;28;20028;-68
2023/05/16 08:11:45;;;;;;;8.18;2.17;;;;;;;;;;5085103;28;20036;-69
2023/05/16 08:14:10;;;;;;;8.52;3.05;;;;;;;;;;5080804;28;20024;-67
2023/05/16 08:16:36;;;;;;;10.18;2.25;;;;;;;;;;5082073;28;20024;-68
2023/05/16 08:19:01;;;;;;;6.30;2.10;;;;;;;;;;5068291;28;20040;-68
2023/05/16 08:21:26;;;;;;;7.28;2.85;;;;;;;;;;5077957;28;20126;-68
2023/05/16 08:23:53;;;;;;;5.80;2.15;;;;;;;;;;5085317;28;20038;-69
2023/05/16 08:26:18;;;;;;;7.03;2.50;;;;;;;;;;5084440;28;20524;-69
2023/05/16 08:28:43;;;;;;;6.10;1.73;;;;;;;;;;5083942;28;20044;-69
2023/05/16 08:31:08;;;;;;;7.25;2.17;;;;;;;;;;5087488;28;20409;-66
2023/05/16 08:33:34;;;;;;;4.88;1.83;;;;;;;;;;5082697;28;20032;-68
2023/05/16 08:36:00;;;;;;;8.02;2.00;;;;;;;;;;5085500;28;20158;-65
2023/05/16 08:38:25;;;;;;;4.55;1.65;;;;;;;;;;5087449;28;20481;-68
2023/05/16 08:40:50;;;;;;;8.40;2.05;;;;;;;;;;5081732;28;20390;-65
2023/05/16 08:43:15;;;;;;;12.02;2.65;;;;;;;;;;5082239;28;20040;-65
2023/05/16 08:45:41;;;;;;;7.90;2.83;;;;;;;;;;5086228;28;20024;-67
2023/05/16 08:48:08;;;;;;;8.18;2.17;;;;;;;;;;5084023;28;20121;-65
2023/05/16 08:50:34;;;;;;;7.53;2.28;;;;;;;;;;5087032;28;20016;-65
2023/05/16 08:53:05;;;;;;;6.82;2.40;;;;;;;;;;5086771;28;20081;-69
2023/05/16 08:55:30;;;;;;;5.10;2.05;;;;;;;;;;5086531;28;20123;-68
2023/05/16 08:57:56;;;;;;;9.75;2.92;;;;;;;;;;5085983;28;20455;-70
2023/05/16 09:00:22;;;;;;;6.68;2.17;;;;;;;;;;5084660;28;20031;-69
2023/05/16 09:02:48;;;;;;;8.07;2.38;;;;;;;;;;5084096;28;20069;-69
2023/05/16 09:05:14;;;;;;;5.35;2.10;;;;;;;;;;5074182;28;20146;-64
2023/05/16 09:07:40;;;;;;;7.38;2.10;;;;;;;;;;5080185;28;20470;-68
2023/05/16 09:10:06;;;;;;;5.10;1.80;;;;;;;;;;5079577;28;20027;-69
2023/05/16 09:12:32;;;;;;;5.78;2.22;;;;;;;;;;5081257;28;20024;-68
2023/05/16 09:14:57;;;;;;;6.53;2.67;;;;;;;;;;5079993;28;20039;-68
2023/05/16 09:17:22;;;;;;;8.57;1.92;;;;;;;;;;5079424;28;20020;-65
2023/05/16 09:19:51;;;;;;;6.55;1.98;;;;;;;;;;5079262;28;20089;-68
2023/05/16 09:22:17;;;;;;;10.45;2.30;;;;;;;;;;5079020;28;20036;-68
2023/05/16 09:24:43;;;;;;;9.13;1.95;;;;;;;;;;5080195;28;20843;-65
2023/05/16 09:27:13;;;;;;;3.72;1.58;;;;;;;;;;5079566;28;20024;-68
2023/05/16 09:29:41;;;;;;;11.02;2.50;;;;;;;;;;5070088;28;20020;-69
2023/05/16 09:32:11;;;;;;;6.13;2.03;;;;;;;;;;5053410;28;20139;-67
2023/05/16 09:34:47;;;;;;;7.13;2.22;;;;;;;;;;5042856;28;20139;-66
2023/05/16 09:37:13;;;;;;;7.78;1.80;;;;;;;;;;5046221;28;20190;-68
2023/05/16 09:39:49;;;;;;;5.05;1.80;;;;;;;;;;5028208;28;20031;-67
2023/05/16 09:42:15;;;;;;;7.35;2.33;;;;;;;;;;5052132;28;20027;-69
2023/05/16 09:44:40;;;;;;;4.20;1.77;;;;;;;;;;5041524;28;20017;-66
2023/05/16 09:47:06;;;;;;;9.32;2.60;;;;;;;;;;5047038;28;20813;-69
2023/05/16 09:49:31;;;;;;;3.70;1.58;;;;;;;;;;5060093;28;20052;-69
2023/05/16 09:52:00;;;;;;;7.80;2.20;;;;;;;;;;5059269;28;20034;-69
2023/05/16 09:54:32;;;;;;;4.28;1.67;;;;;;;;;;5060459;28;20028;-68
2023/05/16 09:56:57;;;;;;;7.32;1.70;;;;;;;;;;5056559;28;20020;-66
2023/05/16 09:59:23;;;;;;;5.32;2.28;;;;;;;;;;5060902;28;20040;-68
2023/05/16 10:01:49;;;;;;;7.07;1.98;;;;;;;;;;5054148;28;20090;-69
2023/05/16 10:04:15;;;;;;;6.15;1.48;;;;;;;;;;5055102;28;20024;-68
2023/05/16 10:06:41;;;;;;;3.72;1.83;;;;;;;;;;5056291;28;20071;-68
2023/05/16 10:09:10;;;;;;;8.38;2.22;;;;;;;;;;5064492;28;20024;-68
2023/05/16 10:11:35;;;;;;;4.53;2.00;;;;;;;;;;5059877;28;20486;-70
2023/05/16 10:14:01;;;;;;;4.75;1.33;;;;;;;;;;5072500;28;20089;-68
2023/05/16 10:16:27;;;;;;;6.68;1.90;;;;;;;;;;5049798;28;20028;-68
2023/05/16 10:18:53;;;;;;;5.20;1.67;;;;;;;;;;5077467;28;20938;-68
2023/05/16 10:21:21;;;;;;;7.93;2.53;;;;;;;;;;5075528;28;20047;-65
2023/05/16 10:23:47;;;;;;;5.95;2.20;;;;;;;;;;5064812;28;20036;-69
2023/05/16 10:26:15;;;;;;;6.03;2.15;;;;;;;;;;5082255;28;20113;-65
2023/05/16 10:28:40;;;;;;;12.02;2.28;;;;;;;;;;5081278;28;20055;-68
2023/05/16 10:31:06;;;;;;;3.58;1.58;;;;;;;;;;5073323;28;20177;-66
2023/05/16 10:33:31;;;;;;;5.85;1.83;;;;;;;;;;5075738;28;20036;-69
2023/05/16 10:35:57;;;;;;;3.92;1.75;;;;;;;;;;5046874;28;20459;-65
2023/05/16 10:38:23;;;;;;;4.72;1.60;;;;;;;;;;5076181;28;20027;-69
2023/05/16 10:40:49;;;;;;;9.05;1.40;;;;;;;;;;5069713;28;20036;-69
2023/05/16 10:43:29;;;;;;;3.70;1.40;;;;;;;;;;5069483;28;20020;-70
2023/05/16 10:46:01;;;;;;;7.25;2.28;;;;;;;;;;5052815;28;20032;-69
2023/05/16 10:48:29;;;;;;;4.10;1.73;;;;;;;;;;5066320;28;20069;-70
2023/05/16 10:50:55;;;;;;;9.55;1.67;;;;;;;;;;5044331;28;20627;-69
2023/05/16 10:53:21;;;;;;;4.95;1.52;;;;;;;;;;5058399;28;20028;-64
2023/05/16 10:55:52;;;;;;;5.28;1.95;;;;;;;;;;5090249;28;20020;-69
2023/05/16 10:58:21;;;;;;;5.03;1.33;;;;;;;;;;5092035;28;20039;-69
2023/05/16 11:00:47;;;;;;;9.90;1.75;;;;;;;;;;5093064;28;20035;-67
2023/05/16 11:03:22;;;;;;;5.33;1.53;;;;;;;;;;5093446;28;20031;-67
2023/05/16 11:05:51;;;;;;;4.07;2.03;;;;;;;;;;5083214;28;20282;-68
2023/05/16 11:08:16;;;;;;;5.20;1.58;;;;;;;;;;5092306;28;20096;-67
2023/05/16 11:10:41;;;;;;;7.35;2.33;;;;;;;;;;5093751;28;20153;-66
2023/05/16 11:13:07;;;;;;;6.45;1.88;;;;;;;;;;5094205;28;20036;-66
2023/05/16 11:15:33;;;;;;;10.13;2.40;;;;;;;;;;5094002;28;20254;-66
2023/05/16 11:18:09;;;;;;;6.85;2.33;;;;;;;;;;5093846;28;20031;-65
2023/05/16 11:20:37;;;;;;;3.95;1.75;;;;;;;;;;5093861;28;20702;-67
2023/05/16 11:23:18;;;;;;;5.93;2.50;;;;;;;;;;5094456;28;20050;-67
2023/05/16 11:25:52;;;;;;;4.78;2.13;;;;;;;;;;5092384;28;20024;-67
2023/05/16 11:28:18;;;;;;;3.80;1.77;;;;;;;;;;5075172;28;20115;-65
2023/05/16 11:30:48;;;;;;;7.85;2.20;;;;;;;;;;5084825;28;20411;-65
2023/05/16 11:33:14;;;;;;;3.83;1.80;;;;;;;;;;5086804;28;20035;-66
2023/05/16 11:35:41;;;;;;;9.60;2.38;;;;;;;;;;5084627;28;20040;-65
2023/05/16 11:38:10;;;;;;;5.38;2.13;;;;;;;;;;5092996;28;20027;-65
2023/05/16 11:40:36;;;;;;;7.55;2.25;;;;;;;;;;5090350;28;20028;-62
2023/05/16 11:43:02;;;;;;;3.90;2.03;;;;;;;;;;5090200;28;20024;-64
2023/05/16 11:45:27;;;;;;;4.43;2.05;;;;;;;;;;5093582;28;20149;-65
2023/05/16 11:47:53;;;;;;;8.30;2.70;;;;;;;;;;5092258;28;20114;-68
2023/05/16 11:50:20;;;;;;;7.20;2.60;;;;;;;;;;5082935;28;20069;-68
2023/05/16 11:52:46;;;;;;;6.22;2.50;;;;;;;;;;5092795;28;20017;-67
2023/05/16 11:55:13;;;;;;;4.03;1.77;;;;;;;;;;5086133;28;20103;-65
2023/05/16 11:57:40;;;;;;;3.97;1.60;;;;;;;;;;5075583;28;20150;-68
2023/05/16 12:00:19;;;;;;;3.65;1.65;;;;;;;;;;5093669;28;20024;-64
2023/05/16 12:02:46;;;;;;;5.00;1.63;;;;;;;;;;5089480;28;20065;-67
2023/05/16 12:05:12;;;;;;;6.57;1.77;;;;;;;;;;5063337;28;20039;-69
2023/05/16 12:07:37;;;;;;;3.63;1.83;;;;;;;;;;5053632;28;20107;-70
2023/05/16 12:10:06;;;;;;;3.53;1.50;;;;;;;;;;5055788;28;20490;-67
2023/05/16 12:12:32;;;;;;;3.85;1.73;;;;;;;;;;5062890;28;20116;-66
2023/05/16 12:14:57;;;;;;;4.07;1.60;;;;;;;;;;5061861;28;20930;-68
2023/05/16 12:17:23;;;;;;;5.13;2.10;;;;;;;;;;5062273;28;20027;-67
2023/05/16 12:19:48;;;;;;;6.18;2.13;;;;;;;;;;5036421;28;20997;-69
2023/05/16 12:22:18;;;;;;;4.07;2.08;;;;;;;;;;5053892;28;20031;-68
2023/05/16 12:24:43;;;;;;;4.13;1.75;;;;;;;;;;5050146;28;20054;-67
2023/05/16 12:27:09;;;;;;;11.60;2.22;;;;;;;;;;5048526;28;20866;-70
2023/05/16 12:29:34;;;;;;;7.38;1.83;;;;;;;;;;5045589;28;20027;-68
2023/05/16 12:31:59;;;;;;;3.38;1.58;;;;;;;;;;5051990;28;20809;-69
2023/05/16 12:34:27;;;;;;;5.72;2.00;;;;;;;;;;5031442;28;20039;-67
2023/05/16 12:36:53;;;;;;;6.45;2.05;;;;;;;;;;5047971;28;20051;-66
2023/05/16 12:39:19;;;;;;;6.78;1.67;;;;;;;;;;5050821;28;20897;-65
2023/05/16 12:41:44;;;;;;;5.65;2.20;;;;;;;;;;5051164;28;20034;-65
2023/05/16 12:44:12;;;;;;;5.30;2.22;;;;;;;;;;5052686;28;20840;-65
2023/05/16 12:46:44;;;;;;;5.18;1.75;;;;;;;;;;5054553;28;20016;-67
2023/05/16 12:49:10;;;;;;;9.35;1.85;;;;;;;;;;5050002;28;20031;-67
2023/05/16 12:51:36;;;;;;;5.78;1.77;;;;;;;;;;5048798;28;21064;-68
2023/05/16 12:54:10;;;;;;;3.88;1.65;;;;;;;;;;5055983;28;20077;-65
2023/05/16 12:56:35;;;;;;;4.05;1.80;;;;;;;;;;5052910;28;20081;-67
2023/05/16 12:59:01;;;;;;;7.13;1.60;;;;;;;;;;5047244;28;20140;-68
2023/05/16 13:01:26;;;;;;;8.75;1.95;;;;;;;;;;5052776;28;20928;-67
2023/05/16 13:03:52;;;;;;;4.85;1.77;;;;;;;;;;5051315;28;20033;-68
2023/05/16 13:06:18;;;;;;;5.68;1.92;;;;;;;;;;5054786;28;20020;-66
2023/05/16 13:08:43;;;;;;;7.40;2.45;;;;;;;;;;5057006;28;20131;-65
2023/05/16 13:11:08;;;;;;;5.77;2.23;;;;;;;;;;5047865;28;20016;-64
2023/05/16 13:13:34;;;;;;;4.28;1.90;;;;;;;;;;5050240;28;20324;-65
2023/05/16 13:16:00;;;;;;;6.50;1.83;;;;;;;;;;5049082;28;20023;-66
2023/05/16 13:18:25;;;;;;;4.25;1.70;;;;;;;;;;5041034;28;20127;-65
2023/05/16 13:20:51;;;;;;;10.07;2.15;;;;;;;;;;5045917;28;20028;-66
2023/05/16 13:23:17;;;;;;;3.35;1.30;;;;;;;;;;5050343;28;20009;-66
2023/05/16 13:25:46;;;;;;;3.83;1.63;;;;;;;;;;5048284;28;21099;-66
2023/05/16 13:28:11;;;;;;;5.35;1.77;;;;;;;;;;5045456;28;20979;-66
2023/05/16 13:30:36;;;;;;;5.32;2.00;;;;;;;;;;5048399;28;20069;-66
2023/05/16 13:33:02;;;;;;;4.18;2.00;;;;;;;;;;5047344;28;20032;-64
2023/05/16 13:35:27;;;;;;;9.90;2.33;;;;;;;;;;5048474;28;20024;-69
2023/05/16 13:37:52;;;;;;;5.65;1.67;;;;;;;;;;5048673;28;20082;-68
2023/05/16 13:40:17;;;;;;;6.97;2.15;;;;;;;;;;5046265;28;20028;-66
2023/05/16 13:42:43;;;;;;;4.43;1.73;;;;;;;;;;5044551;28;20081;-66
2023/05/16 13:45:08;;;;;;;6.35;2.08;;;;;;;;;;5020204;28;20021;-68
2023/05/16 13:47:34;;;;;;;4.85;2.13;;;;;;;;;;5044422;28;20051;-68
2023/05/16 13:50:03;;;;;;;4.55;1.88;;;;;;;;;;5046353;28;20052;-66
2023/05/16 13:52:28;;;;;;;7.38;2.60;;;;;;;;;;5048778;28;20024;-65
2023/05/16 13:54:53;;;;;;;5.93;2.17;;;;;;;;;;5046752;28;20035;-65
2023/05/16 13:57:21;;;;;;;4.45;1.92;;;;;;;;;;5045622;28;20281;-66
2023/05/16 13:59:46;;;;;;;4.93;2.13;;;;;;;;;;5043990;28;20028;-64
2023/05/16 14:02:11;;;;;;;6.95;1.98;;;;;;;;;;5041339;28;20275;-66
2023/05/16 14:04:36;;;;;;;7.10;2.17;;;;;;;;;;5047086;28;20139;-63
2023/05/16 14:07:02;;;;;;;7.15;2.53;;;;;;;;;;5042746;28;20854;-64
2023/05/16 14:09:27;;;;;;;4.38;1.55;;;;;;;;;;5051912;28;20030;-66
2023/05/16 14:11:52;;;;;;;6.15;2.00;;;;;;;;;;5047034;28;20031;-67
2023/05/16 14:14:17;;;;;;;4.80;2.08;;;;;;;;;;5047334;28;20282;-66
2023/05/16 14:16:44;;;;;;;19.48;2.20;;;;;;;;;;5034877;28;20024;-63
2023/05/16 14:19:10;;;;;;;4.28;2.33;;;;;;;;;;5047699;28;20264;-64
2023/05/16 14:21:36;;;;;;;4.82;1.98;;;;;;;;;;5043755;28;20039;-69
2023/05/16 14:24:01;;;;;;;6.80;2.20;;;;;;;;;;5048553;28;20037;-68
2023/05/16 14:26:26;;;;;;;6.75;2.30;;;;;;;;;;5043386;28;20027;-69
2023/05/16 14:28:52;;;;;;;20.38;2.55;;;;;;;;;;5043903;28;20968;-66